sensor_id;sensor_type;location;lat;lon;timestamp;P1;durP1;ratioP1;P2;durP2;ratioP2
25627;SDS011;40915;50.826;4.356;2022-11-15T00:00:23;28.20;;;17.08;;
25627;SDS011;40915;50.826;4.356;2022-11-15T00:02:49;37.38;;;19.50;;
25627;SDS011;40915;50.826;4.356;2022-11-15T00:05:15;24.77;;;17.52;;
25627;SDS011;40915;50.826;4.356;2022-11-15T00:07:41;22.13;;;16.80;;
25627;SDS011;40915;50.826;4.356;2022-11-15T00:10:07;21.15;;;17.30;;
25627;SDS011;40915;50.826;4.356;2022-11-15T00:12:33;32.20;;;18.58;;
25627;SDS011;40915;50.826;4.356;2022-11-15T00:14:59;26.42;;;17.90;;
25627;SDS011;40915;50.826;4.356;2022-11-15T00:17:25;28.60;;;19.20;;
25627;SDS011;40915;50.826;4.356;2022-11-15T00:19:51;29.40;;;18.77;;
25627;SDS011;40915;50.826;4.356;2022-11-15T00:22:17;29.83;;;20.20;;
25627;SDS011;40915;50.826;4.356;2022-11-15T00:24:43;25.25;;;18.98;;
25627;SDS011;40915;50.826;4.356;2022-11-15T00:27:09;28.17;;;19.15;;
25627;SDS011;40915;50.826;4.356;2022-11-15T00:29:35;28.98;;;19.63;;
25627;SDS011;40915;50.826;4.356;2022-11-15T00:32:03;24.50;;;19.17;;
25627;SDS011;40915;50.826;4.356;2022-11-15T00:34:29;25.20;;;18.20;;
25627;SDS011;40915;50.826;4.356;2022-11-15T00:36:55;27.63;;;18.83;;
25627;SDS011;40915;50.826;4.356;2022-11-15T00:39:21;30.60;;;18.83;;
25627;SDS011;40915;50.826;4.356;2022-11-15T00:41:47;28.25;;;19.60;;
25627;SDS011;40915;50.826;4.356;2022-11-15T00:44:13;27.00;;;19.08;;
25627;SDS011;40915;50.826;4.356;2022-11-15T00:46:39;24.55;;;18.63;;
25627;SDS011;40915;50.826;4.356;2022-11-15T00:49:05;28.42;;;18.95;;
25627;SDS011;40915;50.826;4.356;2022-11-15T00:51:31;27.70;;;18.15;;
25627;SDS011;40915;50.826;4.356;2022-11-15T00:53:57;27.63;;;19.10;;
25627;SDS011;40915;50.826;4.356;2022-11-15T00:56:23;28.05;;;18.55;;
25627;SDS011;40915;50.826;4.356;2022-11-15T00:58:49;28.63;;;19.23;;
25627;SDS011;40915;50.826;4.356;2022-11-15T01:01:15;28.25;;;20.00;;
25627;SDS011;40915;50.826;4.356;2022-11-15T01:03:41;34.83;;;20.63;;
25627;SDS011;40915;50.826;4.356;2022-11-15T01:06:07;28.90;;;19.38;;
25627;SDS011;40915;50.826;4.356;2022-11-15T01:08:34;29.33;;;21.48;;
25627;SDS011;40915;50.826;4.356;2022-11-15T01:11:00;33.28;;;20.42;;
25627;SDS011;40915;50.826;4.356;2022-11-15T01:13:29;34.13;;;21.65;;
25627;SDS011;40915;50.826;4.356;2022-11-15T01:15:55;31.85;;;21.00;;
25627;SDS011;40915;50.826;4.356;2022-11-15T01:18:21;32.45;;;21.02;;
25627;SDS011;40915;50.826;4.356;2022-11-15T01:20:47;32.45;;;20.65;;
25627;SDS011;40915;50.826;4.356;2022-11-15T01:23:13;30.48;;;21.17;;
25627;SDS011;40915;50.826;4.356;2022-11-15T01:25:39;28.55;;;20.40;;
25627;SDS011;40915;50.826;4.356;2022-11-15T01:28:05;29.08;;;20.95;;
25627;SDS011;40915;50.826;4.356;2022-11-15T01:30:30;30.65;;;19.85;;
25627;SDS011;40915;50.826;4.356;2022-11-15T01:32:56;26.98;;;19.92;;
25627;SDS011;40915;50.826;4.356;2022-11-15T01:35:22;26.10;;;19.30;;
25627;SDS011;40915;50.826;4.356;2022-11-15T01:37:48;27.30;;;19.23;;
25627;SDS011;40915;50.826;4.356;2022-11-15T01:40:14;27.15;;;18.60;;
25627;SDS011;40915;50.826;4.356;2022-11-15T01:42:41;24.55;;;17.45;;
25627;SDS011;40915;50.826;4.356;2022-11-15T01:45:10;27.25;;;18.65;;
25627;SDS011;40915;50.826;4.356;2022-11-15T01:47:40;28.20;;;17.23;;
25627;SDS011;40915;50.826;4.356;2022-11-15T01:50:09;24.10;;;17.10;;
25627;SDS011;40915;50.826;4.356;2022-11-15T01:52:36;24.42;;;17.45;;
25627;SDS011;40915;50.826;4.356;2022-11-15T01:55:05;24.50;;;17.35;;
25627;SDS011;40915;50.826;4.356;2022-11-15T01:57:32;26.35;;;16.95;;
25627;SDS011;40915;50.826;4.356;2022-11-15T01:59:59;23.65;;;16.33;;
25627;SDS011;40915;50.826;4.356;2022-11-15T02:02:26;25.80;;;16.38;;
25627;SDS011;40915;50.826;4.356;2022-11-15T02:04:52;21.48;;;16.05;;
25627;SDS011;40915;50.826;4.356;2022-11-15T02:07:19;22.77;;;15.80;;
25627;SDS011;40915;50.826;4.356;2022-11-15T02:09:45;24.25;;;16.83;;
25627;SDS011;40915;50.826;4.356;2022-11-15T02:12:13;24.83;;;17.30;;
25627;SDS011;40915;50.826;4.356;2022-11-15T02:14:40;23.10;;;15.20;;
25627;SDS011;40915;50.826;4.356;2022-11-15T02:17:52;22.17;;;16.38;;
25627;SDS011;40915;50.826;4.356;2022-11-15T02:35:52;27.48;;;17.33;;
25627;SDS011;40915;50.826;4.356;2022-11-15T02:41:05;24.30;;;17.92;;
25627;SDS011;40915;50.826;4.356;2022-11-15T02:43:39;21.25;;;16.08;;
25627;SDS011;40915;50.826;4.356;2022-11-15T02:49:28;24.48;;;15.82;;
25627;SDS011;40915;50.826;4.356;2022-11-15T02:51:54;23.23;;;16.13;;
25627;SDS011;40915;50.826;4.356;2022-11-15T02:54:39;20.73;;;15.20;;
25627;SDS011;40915;50.826;4.356;2022-11-15T02:57:15;24.55;;;14.95;;
25627;SDS011;40915;50.826;4.356;2022-11-15T03:04:58;20.15;;;12.93;;
25627;SDS011;40915;50.826;4.356;2022-11-15T03:10:05;21.60;;;13.38;;
25627;SDS011;40915;50.826;4.356;2022-11-15T03:12:35;19.98;;;12.25;;
25627;SDS011;40915;50.826;4.356;2022-11-15T03:17:34;17.65;;;12.38;;
25627;SDS011;40915;50.826;4.356;2022-11-15T03:20:03;17.05;;;12.02;;
25627;SDS011;40915;50.826;4.356;2022-11-15T03:22:30;17.80;;;11.63;;
25627;SDS011;40915;50.826;4.356;2022-11-15T03:25:00;15.63;;;11.07;;
25627;SDS011;40915;50.826;4.356;2022-11-15T03:27:28;16.95;;;10.27;;
25627;SDS011;40915;50.826;4.356;2022-11-15T03:29:57;14.45;;;9.73;;
25627;SDS011;40915;50.826;4.356;2022-11-15T03:32:25;15.63;;;9.55;;
25627;SDS011;40915;50.826;4.356;2022-11-15T03:34:57;14.45;;;9.38;;
25627;SDS011;40915;50.826;4.356;2022-11-15T03:40:08;14.57;;;8.73;;
25627;SDS011;40915;50.826;4.356;2022-11-15T03:42:39;12.35;;;8.52;;
25627;SDS011;40915;50.826;4.356;2022-11-15T03:45:10;11.43;;;8.20;;
25627;SDS011;40915;50.826;4.356;2022-11-15T03:47:39;14.40;;;8.55;;
25627;SDS011;40915;50.826;4.356;2022-11-15T03:50:08;10.77;;;7.85;;
25627;SDS011;40915;50.826;4.356;2022-11-15T03:52:36;11.85;;;7.65;;
25627;SDS011;40915;50.826;4.356;2022-11-15T03:55:03;11.93;;;7.35;;
25627;SDS011;40915;50.826;4.356;2022-11-15T03:57:30;12.35;;;7.45;;
25627;SDS011;40915;50.826;4.356;2022-11-15T03:59:56;12.35;;;7.50;;
25627;SDS011;40915;50.826;4.356;2022-11-15T04:02:22;10.43;;;6.90;;
25627;SDS011;40915;50.826;4.356;2022-11-15T04:04:48;14.75;;;7.78;;
25627;SDS011;40915;50.826;4.356;2022-11-15T04:07:14;11.80;;;7.53;;
25627;SDS011;40915;50.826;4.356;2022-11-15T04:09:40;11.57;;;6.97;;
25627;SDS011;40915;50.826;4.356;2022-11-15T04:12:24;12.35;;;7.10;;
25627;SDS011;40915;50.826;4.356;2022-11-15T04:15:06;12.05;;;7.20;;
25627;SDS011;40915;50.826;4.356;2022-11-15T04:17:45;10.45;;;6.70;;
25627;SDS011;40915;50.826;4.356;2022-11-15T04:20:19;17.30;;;6.90;;
25627;SDS011;40915;50.826;4.356;2022-11-15T04:23:09;12.45;;;7.00;;
25627;SDS011;40915;50.826;4.356;2022-11-15T04:25:54;10.60;;;6.45;;
25627;SDS011;40915;50.826;4.356;2022-11-15T04:28:21;9.35;;;6.63;;
25627;SDS011;40915;50.826;4.356;2022-11-15T04:30:47;9.10;;;6.90;;
25627;SDS011;40915;50.826;4.356;2022-11-15T04:33:13;12.17;;;6.83;;
25627;SDS011;40915;50.826;4.356;2022-11-15T04:35:39;11.15;;;6.22;;
25627;SDS011;40915;50.826;4.356;2022-11-15T04:38:06;12.38;;;7.10;;
25627;SDS011;40915;50.826;4.356;2022-11-15T04:40:32;10.60;;;6.35;;
25627;SDS011;40915;50.826;4.356;2022-11-15T04:42:58;8.65;;;6.20;;
25627;SDS011;40915;50.826;4.356;2022-11-15T04:45:24;10.70;;;6.25;;
25627;SDS011;40915;50.826;4.356;2022-11-15T04:47:50;13.18;;;6.30;;
25627;SDS011;40915;50.826;4.356;2022-11-15T04:50:16;10.43;;;5.90;;
25627;SDS011;40915;50.826;4.356;2022-11-15T04:52:43;12.32;;;6.55;;
25627;SDS011;40915;50.826;4.356;2022-11-15T04:55:09;10.00;;;6.20;;
25627;SDS011;40915;50.826;4.356;2022-11-15T04:57:36;9.63;;;5.70;;
25627;SDS011;40915;50.826;4.356;2022-11-15T05:00:06;7.85;;;5.38;;
25627;SDS011;40915;50.826;4.356;2022-11-15T05:02:32;9.65;;;5.63;;
25627;SDS011;40915;50.826;4.356;2022-11-15T05:05:17;12.43;;;5.73;;
25627;SDS011;40915;50.826;4.356;2022-11-15T05:07:43;8.60;;;5.13;;
25627;SDS011;40915;50.826;4.356;2022-11-15T05:10:09;12.30;;;5.37;;
25627;SDS011;40915;50.826;4.356;2022-11-15T05:12:35;11.17;;;5.23;;
25627;SDS011;40915;50.826;4.356;2022-11-15T05:15:01;11.83;;;4.77;;
25627;SDS011;40915;50.826;4.356;2022-11-15T05:17:27;9.40;;;4.60;;
25627;SDS011;40915;50.826;4.356;2022-11-15T05:19:53;9.30;;;4.30;;
25627;SDS011;40915;50.826;4.356;2022-11-15T05:22:19;12.73;;;4.53;;
25627;SDS011;40915;50.826;4.356;2022-11-15T05:24:46;11.53;;;5.10;;
25627;SDS011;40915;50.826;4.356;2022-11-15T05:27:12;7.27;;;4.30;;
25627;SDS011;40915;50.826;4.356;2022-11-15T05:29:37;13.07;;;4.70;;
25627;SDS011;40915;50.826;4.356;2022-11-15T05:32:05;9.10;;;4.40;;
25627;SDS011;40915;50.826;4.356;2022-11-15T05:34:31;13.60;;;4.80;;
25627;SDS011;40915;50.826;4.356;2022-11-15T05:36:57;11.57;;;4.40;;
25627;SDS011;40915;50.826;4.356;2022-11-15T05:39:24;12.30;;;4.63;;
25627;SDS011;40915;50.826;4.356;2022-11-15T05:41:52;12.53;;;4.20;;
25627;SDS011;40915;50.826;4.356;2022-11-15T05:44:19;8.70;;;4.83;;
25627;SDS011;40915;50.826;4.356;2022-11-15T05:46:46;9.10;;;5.07;;
25627;SDS011;40915;50.826;4.356;2022-11-15T05:49:14;9.97;;;4.60;;
25627;SDS011;40915;50.826;4.356;2022-11-15T05:51:41;6.97;;;4.50;;
25627;SDS011;40915;50.826;4.356;2022-11-15T05:54:10;18.30;;;5.50;;
25627;SDS011;40915;50.826;4.356;2022-11-15T05:56:36;11.33;;;4.83;;
25627;SDS011;40915;50.826;4.356;2022-11-15T05:59:02;10.17;;;4.57;;
25627;SDS011;40915;50.826;4.356;2022-11-15T06:01:28;14.43;;;4.80;;
25627;SDS011;40915;50.826;4.356;2022-11-15T06:03:55;8.77;;;4.50;;
25627;SDS011;40915;50.826;4.356;2022-11-15T06:06:21;16.23;;;4.80;;
25627;SDS011;40915;50.826;4.356;2022-11-15T06:08:47;8.30;;;4.33;;
25627;SDS011;40915;50.826;4.356;2022-11-15T06:11:13;11.67;;;4.33;;
25627;SDS011;40915;50.826;4.356;2022-11-15T06:13:39;10.53;;;4.57;;
25627;SDS011;40915;50.826;4.356;2022-11-15T06:16:05;8.87;;;4.57;;
25627;SDS011;40915;50.826;4.356;2022-11-15T06:18:32;25.90;;;5.63;;
25627;SDS011;40915;50.826;4.356;2022-11-15T06:20:58;9.33;;;4.00;;
25627;SDS011;40915;50.826;4.356;2022-11-15T06:23:25;14.13;;;4.40;;
25627;SDS011;40915;50.826;4.356;2022-11-15T06:25:51;8.50;;;4.53;;
25627;SDS011;40915;50.826;4.356;2022-11-15T06:28:17;9.23;;;4.17;;
25627;SDS011;40915;50.826;4.356;2022-11-15T06:30:43;9.07;;;4.63;;
25627;SDS011;40915;50.826;4.356;2022-11-15T06:33:09;8.63;;;3.93;;
25627;SDS011;40915;50.826;4.356;2022-11-15T06:35:35;8.63;;;4.07;;
25627;SDS011;40915;50.826;4.356;2022-11-15T06:38:05;10.23;;;4.20;;
25627;SDS011;40915;50.826;4.356;2022-11-15T06:40:35;8.20;;;4.03;;
25627;SDS011;40915;50.826;4.356;2022-11-15T06:43:01;9.27;;;4.10;;
25627;SDS011;40915;50.826;4.356;2022-11-15T06:45:27;11.97;;;4.53;;
25627;SDS011;40915;50.826;4.356;2022-11-15T06:47:53;5.70;;;3.60;;
25627;SDS011;40915;50.826;4.356;2022-11-15T06:50:19;6.33;;;4.00;;
25627;SDS011;40915;50.826;4.356;2022-11-15T06:52:45;7.87;;;4.47;;
25627;SDS011;40915;50.826;4.356;2022-11-15T06:55:11;11.20;;;4.43;;
25627;SDS011;40915;50.826;4.356;2022-11-15T06:57:42;10.50;;;4.97;;
25627;SDS011;40915;50.826;4.356;2022-11-15T07:00:11;7.60;;;4.17;;
25627;SDS011;40915;50.826;4.356;2022-11-15T07:02:37;6.87;;;4.10;;
25627;SDS011;40915;50.826;4.356;2022-11-15T07:05:03;6.37;;;3.63;;
25627;SDS011;40915;50.826;4.356;2022-11-15T07:07:29;7.73;;;4.10;;
25627;SDS011;40915;50.826;4.356;2022-11-15T07:09:55;12.43;;;6.07;;
25627;SDS011;40915;50.826;4.356;2022-11-15T07:12:21;9.40;;;4.00;;
25627;SDS011;40915;50.826;4.356;2022-11-15T07:14:47;11.17;;;4.13;;
25627;SDS011;40915;50.826;4.356;2022-11-15T07:17:13;12.47;;;4.53;;
25627;SDS011;40915;50.826;4.356;2022-11-15T07:19:39;14.83;;;5.27;;
25627;SDS011;40915;50.826;4.356;2022-11-15T07:22:05;17.63;;;4.73;;
25627;SDS011;40915;50.826;4.356;2022-11-15T07:24:31;7.83;;;4.20;;
25627;SDS011;40915;50.826;4.356;2022-11-15T07:26:57;10.97;;;3.87;;
25627;SDS011;40915;50.826;4.356;2022-11-15T07:29:23;4.73;;;3.83;;
25627;SDS011;40915;50.826;4.356;2022-11-15T07:31:49;8.47;;;3.90;;
25627;SDS011;40915;50.826;4.356;2022-11-15T07:34:15;9.80;;;5.13;;
25627;SDS011;40915;50.826;4.356;2022-11-15T07:36:41;6.40;;;4.10;;
25627;SDS011;40915;50.826;4.356;2022-11-15T07:39:07;6.23;;;4.20;;
25627;SDS011;40915;50.826;4.356;2022-11-15T07:41:34;9.47;;;4.43;;
25627;SDS011;40915;50.826;4.356;2022-11-15T07:44:00;9.83;;;4.40;;
25627;SDS011;40915;50.826;4.356;2022-11-15T07:46:26;9.57;;;4.20;;
25627;SDS011;40915;50.826;4.356;2022-11-15T07:48:52;8.60;;;4.50;;
25627;SDS011;40915;50.826;4.356;2022-11-15T07:51:18;8.93;;;3.80;;
25627;SDS011;40915;50.826;4.356;2022-11-15T07:53:44;7.97;;;4.20;;
25627;SDS011;40915;50.826;4.356;2022-11-15T07:56:10;6.33;;;4.20;;
25627;SDS011;40915;50.826;4.356;2022-11-15T07:58:36;8.43;;;3.80;;
25627;SDS011;40915;50.826;4.356;2022-11-15T08:01:06;11.27;;;3.90;;
25627;SDS011;40915;50.826;4.356;2022-11-15T08:03:33;9.03;;;3.70;;
25627;SDS011;40915;50.826;4.356;2022-11-15T08:05:59;8.07;;;3.90;;
25627;SDS011;40915;50.826;4.356;2022-11-15T08:08:25;8.23;;;3.80;;
25627;SDS011;40915;50.826;4.356;2022-11-15T08:10:51;9.47;;;4.17;;
25627;SDS011;40915;50.826;4.356;2022-11-15T08:13:17;12.00;;;3.60;;
25627;SDS011;40915;50.826;4.356;2022-11-15T08:15:43;6.03;;;3.40;;
25627;SDS011;40915;50.826;4.356;2022-11-15T08:18:11;6.37;;;3.53;;
25627;SDS011;40915;50.826;4.356;2022-11-15T08:20:37;3.90;;;3.37;;
25627;SDS011;40915;50.826;4.356;2022-11-15T08:23:03;7.80;;;3.23;;
25627;SDS011;40915;50.826;4.356;2022-11-15T08:25:30;8.37;;;3.07;;
25627;SDS011;40915;50.826;4.356;2022-11-15T08:27:57;7.70;;;3.00;;
25627;SDS011;40915;50.826;4.356;2022-11-15T08:30:24;7.33;;;3.00;;
25627;SDS011;40915;50.826;4.356;2022-11-15T08:32:50;13.37;;;3.10;;
25627;SDS011;40915;50.826;4.356;2022-11-15T08:35:17;8.67;;;3.20;;
25627;SDS011;40915;50.826;4.356;2022-11-15T08:37:43;4.17;;;2.30;;
25627;SDS011;40915;50.826;4.356;2022-11-15T08:40:09;9.97;;;2.37;;
25627;SDS011;40915;50.826;4.356;2022-11-15T08:42:35;8.80;;;2.33;;
25627;SDS011;40915;50.826;4.356;2022-11-15T08:45:02;7.20;;;2.43;;
25627;SDS011;40915;50.826;4.356;2022-11-15T08:47:28;6.03;;;2.00;;
25627;SDS011;40915;50.826;4.356;2022-11-15T08:49:54;8.57;;;2.40;;
25627;SDS011;40915;50.826;4.356;2022-11-15T08:52:20;7.23;;;1.83;;
25627;SDS011;40915;50.826;4.356;2022-11-15T08:54:46;8.27;;;2.30;;
25627;SDS011;40915;50.826;4.356;2022-11-15T08:57:13;7.93;;;2.33;;
25627;SDS011;40915;50.826;4.356;2022-11-15T08:59:39;9.17;;;2.57;;
25627;SDS011;40915;50.826;4.356;2022-11-15T09:02:05;9.23;;;2.97;;
25627;SDS011;40915;50.826;4.356;2022-11-15T09:04:31;5.83;;;2.13;;
25627;SDS011;40915;50.826;4.356;2022-11-15T09:06:57;10.77;;;2.90;;
25627;SDS011;40915;50.826;4.356;2022-11-15T09:09:23;7.73;;;2.43;;
25627;SDS011;40915;50.826;4.356;2022-11-15T09:11:49;10.33;;;2.27;;
25627;SDS011;40915;50.826;4.356;2022-11-15T09:14:15;6.60;;;2.30;;
25627;SDS011;40915;50.826;4.356;2022-11-15T09:16:41;9.17;;;1.93;;
25627;SDS011;40915;50.826;4.356;2022-11-15T09:19:07;10.73;;;2.60;;
25627;SDS011;40915;50.826;4.356;2022-11-15T09:21:33;6.10;;;1.80;;
25627;SDS011;40915;50.826;4.356;2022-11-15T09:23:59;8.38;;;2.35;;
25627;SDS011;40915;50.826;4.356;2022-11-15T09:26:25;8.53;;;2.47;;
25627;SDS011;40915;50.826;4.356;2022-11-15T09:28:51;8.63;;;1.90;;
25627;SDS011;40915;50.826;4.356;2022-11-15T09:31:17;6.97;;;1.80;;
25627;SDS011;40915;50.826;4.356;2022-11-15T09:33:43;7.57;;;1.90;;
25627;SDS011;40915;50.826;4.356;2022-11-15T09:36:10;6.07;;;1.70;;
25627;SDS011;40915;50.826;4.356;2022-11-15T09:38:36;11.53;;;1.93;;
25627;SDS011;40915;50.826;4.356;2022-11-15T09:41:08;7.90;;;1.87;;
25627;SDS011;40915;50.826;4.356;2022-11-15T09:48:46;10.17;;;1.70;;
25627;SDS011;40915;50.826;4.356;2022-11-15T09:51:19;6.20;;;1.40;;
25627;SDS011;40915;50.826;4.356;2022-11-15T09:53:48;8.63;;;1.97;;
25627;SDS011;40915;50.826;4.356;2022-11-15T10:01:14;5.97;;;1.57;;
25627;SDS011;40915;50.826;4.356;2022-11-15T10:03:41;8.93;;;1.90;;
25627;SDS011;40915;50.826;4.356;2022-11-15T10:06:09;9.73;;;1.70;;
25627;SDS011;40915;50.826;4.356;2022-11-15T10:11:39;9.98;;;1.60;;
25627;SDS011;40915;50.826;4.356;2022-11-15T10:14:14;4.57;;;1.50;;
25627;SDS011;40915;50.826;4.356;2022-11-15T10:19:50;7.38;;;2.05;;
25627;SDS011;40915;50.826;4.356;2022-11-15T10:24:26;8.35;;;1.63;;
25627;SDS011;40915;50.826;4.356;2022-11-15T10:26:55;7.07;;;1.65;;
25627;SDS011;40915;50.826;4.356;2022-11-15T10:29:25;7.68;;;1.83;;
25627;SDS011;40915;50.826;4.356;2022-11-15T10:31:51;12.57;;;1.77;;
25627;SDS011;40915;50.826;4.356;2022-11-15T10:34:20;9.07;;;1.80;;
25627;SDS011;40915;50.826;4.356;2022-11-15T10:36:54;10.45;;;1.48;;
25627;SDS011;40915;50.826;4.356;2022-11-15T10:39:21;9.30;;;1.70;;
25627;SDS011;40915;50.826;4.356;2022-11-15T10:41:47;8.27;;;2.03;;
25627;SDS011;40915;50.826;4.356;2022-11-15T10:46:43;10.02;;;1.55;;
25627;SDS011;40915;50.826;4.356;2022-11-15T10:49:22;6.22;;;1.40;;
25627;SDS011;40915;50.826;4.356;2022-11-15T10:54:23;5.72;;;1.42;;
25627;SDS011;40915;50.826;4.356;2022-11-15T10:56:50;6.25;;;1.52;;
25627;SDS011;40915;50.826;4.356;2022-11-15T10:59:21;7.85;;;1.52;;
25627;SDS011;40915;50.826;4.356;2022-11-15T11:01:49;6.70;;;1.35;;
25627;SDS011;40915;50.826;4.356;2022-11-15T11:04:15;17.65;;;2.35;;
25627;SDS011;40915;50.826;4.356;2022-11-15T11:09:38;7.40;;;1.65;;
25627;SDS011;40915;50.826;4.356;2022-11-15T11:12:09;9.68;;;1.70;;
25627;SDS011;40915;50.826;4.356;2022-11-15T11:14:37;5.88;;;1.50;;
25627;SDS011;40915;50.826;4.356;2022-11-15T11:17:13;5.95;;;1.30;;
25627;SDS011;40915;50.826;4.356;2022-11-15T11:19:46;19.60;;;3.42;;
25627;SDS011;40915;50.826;4.356;2022-11-15T11:24:44;8.45;;;1.75;;
25627;SDS011;40915;50.826;4.356;2022-11-15T11:29:49;6.85;;;1.20;;
25627;SDS011;40915;50.826;4.356;2022-11-15T11:43:04;9.02;;;1.23;;
25627;SDS011;40915;50.826;4.356;2022-11-15T11:48:13;11.85;;;1.42;;
25627;SDS011;40915;50.826;4.356;2022-11-15T11:50:40;13.60;;;2.28;;
25627;SDS011;40915;50.826;4.356;2022-11-15T11:55:58;10.30;;;1.92;;
25627;SDS011;40915;50.826;4.356;2022-11-15T11:58:31;12.93;;;2.05;;
25627;SDS011;40915;50.826;4.356;2022-11-15T12:03:46;7.30;;;1.40;;
25627;SDS011;40915;50.826;4.356;2022-11-15T12:06:20;12.95;;;2.08;;
25627;SDS011;40915;50.826;4.356;2022-11-15T12:08:52;9.95;;;1.58;;
25627;SDS011;40915;50.826;4.356;2022-11-15T12:14:01;21.55;;;1.70;;
25627;SDS011;40915;50.826;4.356;2022-11-15T12:16:29;7.13;;;1.60;;
25627;SDS011;40915;50.826;4.356;2022-11-15T12:18:59;4.07;;;1.63;;
25627;SDS011;40915;50.826;4.356;2022-11-15T12:21:34;7.30;;;1.60;;
25627;SDS011;40915;50.826;4.356;2022-11-15T12:24:02;6.18;;;1.33;;
25627;SDS011;40915;50.826;4.356;2022-11-15T12:26:35;6.57;;;1.20;;
25627;SDS011;40915;50.826;4.356;2022-11-15T12:29:11;6.78;;;1.13;;
25627;SDS011;40915;50.826;4.356;2022-11-15T12:31:39;4.90;;;1.40;;
25627;SDS011;40915;50.826;4.356;2022-11-15T12:34:28;7.38;;;1.30;;
25627;SDS011;40915;50.826;4.356;2022-11-15T12:36:55;7.95;;;1.17;;
25627;SDS011;40915;50.826;4.356;2022-11-15T12:39:21;7.25;;;1.67;;
25627;SDS011;40915;50.826;4.356;2022-11-15T12:47:01;4.65;;;1.20;;
25627;SDS011;40915;50.826;4.356;2022-11-15T13:04:53;12.00;;;2.35;;
25627;SDS011;40915;50.826;4.356;2022-11-15T13:10:27;8.32;;;1.70;;
25627;SDS011;40915;50.826;4.356;2022-11-15T13:17:43;5.60;;;1.48;;
25627;SDS011;40915;50.826;4.356;2022-11-15T13:27:53;10.35;;;1.27;;
25627;SDS011;40915;50.826;4.356;2022-11-15T13:30:23;3.78;;;1.10;;
25627;SDS011;40915;50.826;4.356;2022-11-15T13:32:50;17.33;;;2.28;;
25627;SDS011;40915;50.826;4.356;2022-11-15T13:35:23;4.93;;;1.38;;
25627;SDS011;40915;50.826;4.356;2022-11-15T13:37:50;4.55;;;1.15;;
25627;SDS011;40915;50.826;4.356;2022-11-15T13:42:45;5.32;;;1.08;;
25627;SDS011;40915;50.826;4.356;2022-11-15T13:45:13;5.65;;;1.48;;
25627;SDS011;40915;50.826;4.356;2022-11-15T13:47:40;4.18;;;0.93;;
25627;SDS011;40915;50.826;4.356;2022-11-15T13:50:10;5.65;;;1.48;;
25627;SDS011;40915;50.826;4.356;2022-11-15T13:52:36;4.70;;;1.25;;
25627;SDS011;40915;50.826;4.356;2022-11-15T13:55:16;4.22;;;1.45;;
25627;SDS011;40915;50.826;4.356;2022-11-15T13:57:47;2.95;;;1.25;;
25627;SDS011;40915;50.826;4.356;2022-11-15T14:00:36;3.35;;;1.20;;
25627;SDS011;40915;50.826;4.356;2022-11-15T14:05:32;44.42;;;3.65;;
25627;SDS011;40915;50.826;4.356;2022-11-15T14:08:41;2.55;;;1.08;;
25627;SDS011;40915;50.826;4.356;2022-11-15T14:10:48;26.20;;;3.55;;
25627;SDS011;40915;50.826;4.356;2022-11-15T14:13:27;5.95;;;1.60;;
25627;SDS011;40915;50.826;4.356;2022-11-15T14:15:53;4.22;;;1.35;;
25627;SDS011;40915;50.826;4.356;2022-11-15T14:21:07;7.05;;;1.30;;
25627;SDS011;40915;50.826;4.356;2022-11-15T14:23:33;4.57;;;1.33;;
25627;SDS011;40915;50.826;4.356;2022-11-15T14:25:59;5.00;;;1.40;;
25627;SDS011;40915;50.826;4.356;2022-11-15T14:30:52;4.53;;;1.60;;
25627;SDS011;40915;50.826;4.356;2022-11-15T14:33:23;15.32;;;2.13;;
25627;SDS011;40915;50.826;4.356;2022-11-15T14:35:50;7.03;;;1.88;;
25627;SDS011;40915;50.826;4.356;2022-11-15T14:38:16;5.07;;;1.45;;
25627;SDS011;40915;50.826;4.356;2022-11-15T14:40:42;3.38;;;1.45;;
25627;SDS011;40915;50.826;4.356;2022-11-15T14:43:09;4.07;;;1.60;;
25627;SDS011;40915;50.826;4.356;2022-11-15T14:45:36;3.38;;;1.48;;
25627;SDS011;40915;50.826;4.356;2022-11-15T14:48:02;5.25;;;1.50;;
25627;SDS011;40915;50.826;4.356;2022-11-15T14:50:28;5.75;;;1.83;;
25627;SDS011;40915;50.826;4.356;2022-11-15T14:52:54;4.53;;;2.22;;
25627;SDS011;40915;50.826;4.356;2022-11-15T14:55:21;15.30;;;2.13;;
25627;SDS011;40915;50.826;4.356;2022-11-15T14:57:48;3.80;;;1.40;;
25627;SDS011;40915;50.826;4.356;2022-11-15T15:00:14;7.40;;;1.98;;
25627;SDS011;40915;50.826;4.356;2022-11-15T15:02:41;2.58;;;1.45;;
25627;SDS011;40915;50.826;4.356;2022-11-15T15:05:20;4.25;;;1.55;;
25627;SDS011;40915;50.826;4.356;2022-11-15T15:07:47;3.75;;;1.50;;
25627;SDS011;40915;50.826;4.356;2022-11-15T15:10:13;3.30;;;1.52;;
25627;SDS011;40915;50.826;4.356;2022-11-15T15:12:40;3.00;;;2.22;;
25627;SDS011;40915;50.826;4.356;2022-11-15T15:15:09;2.35;;;1.48;;
25627;SDS011;40915;50.826;4.356;2022-11-15T15:17:37;3.92;;;1.85;;
25627;SDS011;40915;50.826;4.356;2022-11-15T15:20:03;2.92;;;1.73;;
25627;SDS011;40915;50.826;4.356;2022-11-15T15:22:29;3.65;;;1.70;;
25627;SDS011;40915;50.826;4.356;2022-11-15T15:24:56;5.85;;;1.55;;
25627;SDS011;40915;50.826;4.356;2022-11-15T15:27:22;2.15;;;1.33;;
25627;SDS011;40915;50.826;4.356;2022-11-15T15:29:48;1.77;;;1.50;;
25627;SDS011;40915;50.826;4.356;2022-11-15T15:32:14;2.33;;;1.60;;
25627;SDS011;40915;50.826;4.356;2022-11-15T15:34:40;6.10;;;1.92;;
25627;SDS011;40915;50.826;4.356;2022-11-15T15:37:19;3.40;;;1.77;;
25627;SDS011;40915;50.826;4.356;2022-11-15T15:39:53;3.67;;;1.92;;
25627;SDS011;40915;50.826;4.356;2022-11-15T15:42:19;3.13;;;1.73;;
25627;SDS011;40915;50.826;4.356;2022-11-15T15:44:46;4.28;;;1.90;;
25627;SDS011;40915;50.826;4.356;2022-11-15T15:47:16;4.18;;;1.83;;
25627;SDS011;40915;50.826;4.356;2022-11-15T15:49:43;4.63;;;2.00;;
25627;SDS011;40915;50.826;4.356;2022-11-15T15:52:09;4.57;;;2.15;;
25627;SDS011;40915;50.826;4.356;2022-11-15T15:54:36;5.88;;;1.90;;
25627;SDS011;40915;50.826;4.356;2022-11-15T15:57:02;3.80;;;2.33;;
25627;SDS011;40915;50.826;4.356;2022-11-15T15:59:28;4.03;;;2.47;;
25627;SDS011;40915;50.826;4.356;2022-11-15T16:01:55;3.50;;;2.10;;
25627;SDS011;40915;50.826;4.356;2022-11-15T16:04:21;2.70;;;2.10;;
25627;SDS011;40915;50.826;4.356;2022-11-15T16:06:47;5.65;;;2.33;;
25627;SDS011;40915;50.826;4.356;2022-11-15T16:09:15;4.07;;;2.15;;
25627;SDS011;40915;50.826;4.356;2022-11-15T16:11:43;3.38;;;2.38;;
25627;SDS011;40915;50.826;4.356;2022-11-15T16:14:09;5.90;;;2.20;;
25627;SDS011;40915;50.826;4.356;2022-11-15T16:16:35;3.20;;;2.35;;
25627;SDS011;40915;50.826;4.356;2022-11-15T16:19:02;3.65;;;2.70;;
25627;SDS011;40915;50.826;4.356;2022-11-15T16:21:28;3.80;;;2.20;;
25627;SDS011;40915;50.826;4.356;2022-11-15T16:23:54;5.28;;;2.33;;
25627;SDS011;40915;50.826;4.356;2022-11-15T16:26:25;5.07;;;2.30;;
25627;SDS011;40915;50.826;4.356;2022-11-15T16:28:51;4.82;;;2.33;;
25627;SDS011;40915;50.826;4.356;2022-11-15T16:31:17;2.40;;;2.03;;
25627;SDS011;40915;50.826;4.356;2022-11-15T16:33:46;2.53;;;2.30;;
25627;SDS011;40915;50.826;4.356;2022-11-15T16:36:21;3.10;;;2.30;;
25627;SDS011;40915;50.826;4.356;2022-11-15T16:38:48;9.75;;;3.20;;
25627;SDS011;40915;50.826;4.356;2022-11-15T16:41:14;3.55;;;2.28;;
25627;SDS011;40915;50.826;4.356;2022-11-15T16:43:43;4.18;;;2.53;;
25627;SDS011;40915;50.826;4.356;2022-11-15T16:46:13;5.60;;;2.85;;
25627;SDS011;40915;50.826;4.356;2022-11-15T16:48:39;3.47;;;2.67;;
25627;SDS011;40915;50.826;4.356;2022-11-15T16:51:05;9.20;;;2.75;;
25627;SDS011;40915;50.826;4.356;2022-11-15T16:53:32;2.83;;;2.33;;
25627;SDS011;40915;50.826;4.356;2022-11-15T16:55:58;4.03;;;2.78;;